Time;durP1;ratioP1;P1;durP2;ratioP2;P2;SDS_P1;SDS_P2;PMS_P1;PMS_P2;Temp;Humidity;BMP_temperature;BMP_pressure;BME280_temperature;BME280_humidity;BME280_pressure;Samples;Min_cycle;Max_cycle;Signal;HPM_P1;HPM_P2
2022/05/30 00:01:06;;;;;;;0.90;0.90;;;20.40;63.90;;;;;;5089708;27;44125;-71
2022/05/30 00:03:34;;;;;;;0.70;0.70;;;20.40;63.90;;;;;;5090214;27;43924;-70
2022/05/30 00:06:02;;;;;;;0.90;0.90;;;20.40;64.70;;;;;;5071925;28;44041;-71
2022/05/30 00:08:30;;;;;;;0.77;0.77;;;20.50;65.00;;;;;;5090003;27;43982;-71
2022/05/30 00:11:02;;;;;;;0.80;0.80;;;20.60;64.60;;;;;;5089628;27;44018;-70
2022/05/30 00:13:29;;;;;;;0.80;0.80;;;20.80;64.20;;;;;;5089936;27;43931;-70
2022/05/30 00:15:57;;;;;;;0.70;0.70;;;21.00;63.70;;;;;;5090344;27;43889;-70
2022/05/30 00:18:25;;;;;;;0.80;0.80;;;21.10;63.20;;;;;;5089688;27;44113;-70
2022/05/30 00:20:53;;;;;;;0.70;0.70;;;21.30;62.70;;;;;;5090409;27;43999;-70
2022/05/30 00:23:21;;;;;;;0.90;0.90;;;21.40;62.20;;;;;;5089776;27;43343;-70
2022/05/30 00:25:49;;;;;;;0.63;0.63;;;21.60;61.80;;;;;;5071745;28;43927;-71
2022/05/30 00:28:18;;;;;;;0.93;0.93;;;21.70;61.60;;;;;;5089621;27;43905;-70
2022/05/30 00:30:46;;;;;;;0.90;0.90;;;21.80;61.10;;;;;;5091324;27;44633;-69
2022/05/30 00:33:15;;;;;;;1.00;1.00;;;21.90;60.90;;;;;;5109501;27;44023;-70
2022/05/30 00:35:43;;;;;;;0.70;0.70;;;21.90;60.60;;;;;;5089736;27;43932;-69
2022/05/30 00:38:11;;;;;;;0.70;0.70;;;21.80;60.70;;;;;;5089937;28;43970;-70
2022/05/30 00:40:39;;;;;;;0.70;0.70;;;21.70;61.00;;;;;;5071517;28;44681;-70
2022/05/30 00:43:26;;;;;;;0.60;0.60;;;21.50;61.10;;;;;;5102738;27;43847;-70
2022/05/30 00:45:54;;;;;;;0.70;0.70;;;21.30;61.40;;;;;;5109605;27;43965;-70
2022/05/30 00:48:24;;;;;;;0.80;0.80;;;21.10;61.80;;;;;;5108765;27;43929;-70
2022/05/30 00:50:53;;;;;;;0.90;0.90;;;20.90;62.20;;;;;;5108540;27;43990;-70
2022/05/30 00:53:20;;;;;;;0.80;0.80;;;20.80;62.50;;;;;;5109094;27;43993;-70
2022/05/30 00:55:54;;;;;;;0.70;0.70;;;20.70;62.90;;;;;;5109372;27;44033;-70
2022/05/30 00:58:25;;;;;;;0.80;0.80;;;20.60;63.00;;;;;;5090117;27;46886;-69
2022/05/30 01:00:53;;;;;;;0.90;0.90;;;20.60;63.30;;;;;;5090182;27;45029;-70
2022/05/30 01:09:01;;;;;;;0.80;0.80;;;20.50;63.60;;;;;;5051448;27;46385;-70
2022/05/30 01:11:47;;;;;;;0.70;0.70;;;20.40;63.70;;;;;;5087966;27;43359;-69
2022/05/30 01:14:16;;;;;;;0.53;0.53;;;20.40;63.70;;;;;;5070390;28;44055;-69
2022/05/30 01:16:44;;;;;;;0.70;0.70;;;20.40;63.80;;;;;;5070888;28;43932;-69
2022/05/30 01:19:24;;;;;;;0.73;0.73;;;20.40;63.90;;;;;;5089088;27;43936;-69
2022/05/30 01:22:02;;;;;;;0.73;0.70;;;20.40;63.90;;;;;;5088867;27;43436;-69
2022/05/30 01:24:35;;;;;;;0.77;0.77;;;20.40;63.90;;;;;;5070349;27;43871;-70
2022/05/30 01:27:42;;;;;;;0.80;0.80;;;20.40;64.00;;;;;;5088857;27;43414;-69
2022/05/30 01:30:13;;;;;;;0.73;0.73;;;20.40;63.90;;;;;;5070366;27;47046;-69
2022/05/30 01:32:42;;;;;;;0.70;0.70;;;20.40;64.00;;;;;;5085287;27;44091;-70
2022/05/30 01:35:11;;;;;;;0.60;0.60;;;20.40;64.60;;;;;;5090145;27;44019;-70
2022/05/30 01:37:42;;;;;;;0.77;0.77;;;20.50;65.00;;;;;;5090204;27;44023;-70
2022/05/30 01:40:11;;;;;;;0.63;0.63;;;20.60;64.70;;;;;;5089944;27;44065;-69
2022/05/30 01:42:40;;;;;;;0.60;0.60;;;20.80;64.30;;;;;;5108388;27;43965;-69
2022/05/30 01:45:08;;;;;;;0.77;0.77;;;20.90;63.70;;;;;;5108352;27;43420;-70
2022/05/30 01:47:38;;;;;;;0.60;0.60;;;21.10;63.10;;;;;;5089643;27;43546;-70
2022/05/30 01:50:07;;;;;;;0.70;0.70;;;21.30;62.70;;;;;;5089318;27;45735;-70
2022/05/30 01:52:39;;;;;;;0.70;0.70;;;21.40;62.20;;;;;;5089379;27;43392;-70
2022/05/30 01:55:07;;;;;;;0.70;0.70;;;21.60;61.80;;;;;;5089531;27;44055;-69
2022/05/30 01:57:54;;;;;;;0.80;0.80;;;21.70;61.50;;;;;;5105713;27;43996;-71
2022/05/30 02:00:34;;;;;;;0.90;0.90;;;21.80;61.20;;;;;;5104576;27;43908;-70
2022/05/30 02:03:04;;;;;;;0.77;0.77;;;21.70;61.10;;;;;;5108007;27;43863;-69
2022/05/30 02:05:33;;;;;;;0.70;0.70;;;21.60;61.40;;;;;;5088964;27;43964;-70
2022/05/30 02:08:01;;;;;;;0.60;0.60;;;21.40;61.30;;;;;;5108349;27;43913;-69
2022/05/30 02:10:30;;;;;;;0.70;0.70;;;21.20;61.70;;;;;;5088956;27;44982;-70
2022/05/30 02:13:01;;;;;;;0.70;0.70;;;21.00;62.00;;;;;;5088708;27;44366;-70
2022/05/30 02:18:32;;;;;;;0.60;0.60;;;20.70;62.80;;;;;;5089475;27;44116;-69
2022/05/30 02:21:00;;;;;;;0.70;0.70;;;20.60;63.10;;;;;;5088961;27;44057;-69
2022/05/30 02:23:29;;;;;;;0.67;0.67;;;20.60;63.40;;;;;;5088849;27;43955;-69
2022/05/30 02:25:56;;;;;;;0.80;0.80;;;20.50;63.50;;;;;;5089018;27;43904;-69
2022/05/30 02:28:26;;;;;;;0.70;0.70;;;20.50;63.70;;;;;;5089275;27;44064;-69
2022/05/30 02:30:54;;;;;;;0.73;0.73;;;20.40;63.70;;;;;;5088563;27;45112;-69
2022/05/30 02:38:55;;;;;;;0.80;0.80;;;20.40;64.70;;;;;;5107770;27;43990;-69
2022/05/30 02:41:49;;;;;;;0.63;0.63;;;20.40;64.10;;;;;;5082507;27;44083;-70
2022/05/30 02:44:19;;;;;;;0.87;0.87;;;20.40;64.10;;;;;;5088344;27;45999;-70
2022/05/30 02:46:47;;;;;;;0.57;0.57;;;20.40;64.20;;;;;;5107019;27;43344;-69
2022/05/30 02:49:16;;;;;;;0.70;0.70;;;20.40;64.10;;;;;;5088868;27;43525;-69
2022/05/30 02:51:46;;;;;;;0.70;0.70;;;20.40;65.30;;;;;;5088395;27;44780;-69
2022/05/30 02:54:14;;;;;;;0.80;0.80;;;20.50;65.40;;;;;;5088390;27;44731;-69
2022/05/30 02:57:01;;;;;;;0.80;0.80;;;20.70;64.90;;;;;;5088528;27;43421;-69
2022/05/30 02:59:31;;;;;;;0.60;0.60;;;20.90;64.30;;;;;;5089170;27;43963;-70
2022/05/30 03:02:05;;;;;;;0.70;0.70;;;21.10;63.50;;;;;;5068712;27;46388;-70
2022/05/30 03:04:33;;;;;;;0.63;0.63;;;21.40;62.80;;;;;;5068657;27;44762;-70
2022/05/30 03:07:07;;;;;;;0.80;0.80;;;21.60;62.10;;;;;;5068937;27;43995;-70
2022/05/30 03:09:35;;;;;;;0.60;0.60;;;21.80;61.50;;;;;;5069119;27;43953;-69
2022/05/30 03:12:23;;;;;;;0.70;0.70;;;22.00;60.90;;;;;;5068593;28;45585;-70
2022/05/30 03:14:51;;;;;;;0.67;0.67;;;22.10;60.40;;;;;;5068515;28;44913;-69
2022/05/30 03:17:19;;;;;;;0.60;0.60;;;22.20;60.00;;;;;;5068243;28;43973;-70
2022/05/30 03:19:52;;;;;;;0.50;0.50;;;22.30;59.80;;;;;;5069129;28;43902;-70
2022/05/30 03:22:23;;;;;;;0.60;0.60;;;22.30;59.50;;;;;;5068513;28;43957;-69
2022/05/30 03:25:11;;;;;;;0.60;0.60;;;22.40;59.20;;;;;;5086765;27;43950;-70
2022/05/30 03:27:39;;;;;;;0.77;0.77;;;22.40;59.20;;;;;;5068948;27;43904;-70
2022/05/30 03:30:07;;;;;;;0.47;0.47;;;22.40;59.40;;;;;;5068610;27;43952;-70
2022/05/30 03:32:35;;;;;;;0.60;0.60;;;22.20;59.70;;;;;;5085424;27;45898;-70
2022/05/30 03:35:05;;;;;;;0.60;0.60;;;22.00;60.20;;;;;;5090085;27;43993;-70
2022/05/30 03:37:38;;;;;;;0.70;0.70;;;21.80;60.60;;;;;;5091471;27;44006;-70
2022/05/30 03:40:27;;;;;;;0.50;0.50;;;21.50;60.80;;;;;;5068602;27;43540;-70
2022/05/30 03:43:25;;;;;;;0.43;0.43;;;21.20;61.30;;;;;;5030065;28;44069;-70
2022/05/30 03:45:59;;;;;;;0.70;0.70;;;21.00;61.90;;;;;;5071996;28;45892;-71
2022/05/30 03:48:28;;;;;;;1.00;1.00;;;20.90;62.40;;;;;;5072106;28;43863;-70
2022/05/30 03:50:56;;;;;;;3.23;1.40;;;20.80;62.60;;;;;;5072496;28;43425;-70
2022/05/30 03:53:26;;;;;;;2.70;1.60;;;20.70;62.90;;;;;;5071779;28;46065;-69
2022/05/30 03:55:54;;;;;;;3.30;1.80;;;20.60;63.00;;;;;;5071990;28;44127;-68
2022/05/30 03:58:23;;;;;;;2.53;2.00;;;20.60;63.30;;;;;;5072130;28;43954;-69
2022/05/30 04:00:51;;;;;;;6.97;2.87;;;20.60;63.40;;;;;;5072302;28;44168;-70
2022/05/30 04:03:20;;;;;;;4.67;2.80;;;20.50;63.40;;;;;;5071675;28;45841;-69
2022/05/30 04:05:48;;;;;;;6.83;2.93;;;20.50;63.50;;;;;;5071491;28;44322;-70
2022/05/30 04:08:16;;;;;;;6.57;3.37;;;20.50;63.60;;;;;;5071625;28;43901;-69
2022/05/30 04:11:17;;;;;;;10.97;3.37;;;20.50;63.70;;;;;;5089748;27;44040;-70
2022/05/30 04:14:03;;;;;;;8.63;3.70;;;20.50;65.00;;;;;;5086883;27;43903;-69
2022/05/30 04:16:57;;;;;;;9.03;3.83;;;20.60;65.00;;;;;;5069772;27;44172;-68
2022/05/30 04:19:25;;;;;;;10.10;3.87;;;20.70;64.30;;;;;;5090944;27;43993;-70
2022/05/30 04:21:53;;;;;;;9.97;4.20;;;20.90;63.70;;;;;;5095425;27;44243;-69
2022/05/30 04:24:31;;;;;;;10.50;4.37;;;21.10;63.20;;;;;;5071156;27;45871;-69
2022/05/30 04:27:05;;;;;;;12.73;4.30;;;21.30;62.70;;;;;;5071581;27;43969;-71
2022/05/30 04:29:33;;;;;;;10.83;4.30;;;21.40;62.20;;;;;;5090116;27;44119;-69
2022/05/30 04:32:13;;;;;;;11.83;4.20;;;21.60;61.70;;;;;;5071660;28;43931;-70
2022/05/30 04:34:41;;;;;;;10.73;4.33;;;21.70;61.20;;;;;;5071213;28;45933;-69
2022/05/30 04:37:09;;;;;;;10.17;4.23;;;21.80;61.00;;;;;;5095188;27;44016;-69
2022/05/30 04:39:40;;;;;;;11.30;4.50;;;21.90;60.80;;;;;;5091426;27;44144;-69
2022/05/30 04:42:29;;;;;;;8.03;4.23;;;21.90;60.60;;;;;;5109222;27;43802;-69
2022/05/30 04:45:15;;;;;;;8.63;4.30;;;21.80;60.90;;;;;;5105750;27;43943;-70
2022/05/30 04:47:53;;;;;;;11.57;4.43;;;21.70;61.20;;;;;;5089640;27;43380;-70
2022/05/30 04:50:21;;;;;;;9.47;4.00;;;21.50;61.50;;;;;;5108976;27;44004;-70
2022/05/30 04:52:50;;;;;;;5.67;4.10;;;21.20;61.40;;;;;;5090978;27;43877;-70
2022/05/30 04:55:41;;;;;;;5.67;3.60;;;21.10;61.80;;;;;;5099821;27;44103;-69
2022/05/30 04:58:21;;;;;;;6.03;3.60;;;20.90;62.30;;;;;;5090409;27;43957;-69
2022/05/30 05:00:57;;;;;;;5.57;3.40;;;20.80;62.60;;;;;;5090334;27;43967;-70
2022/05/30 05:03:28;;;;;;;7.47;3.70;;;20.70;63.00;;;;;;5090788;27;44071;-70
2022/05/30 05:06:02;;;;;;;5.60;3.40;;;20.60;63.20;;;;;;5090212;27;45702;-69
2022/05/30 05:08:34;;;;;;;6.00;3.47;;;20.50;63.30;;;;;;5070569;28;43867;-71
2022/05/30 05:11:21;;;;;;;4.80;3.37;;;20.50;63.60;;;;;;5086666;27;44247;-70
2022/05/30 05:14:09;;;;;;;5.77;3.63;;;20.40;63.60;;;;;;5086599;27;43829;-70
2022/05/30 05:16:55;;;;;;;6.17;3.67;;;20.40;63.70;;;;;;5092762;27;44057;-69
2022/05/30 05:19:23;;;;;;;4.67;3.60;;;20.40;63.80;;;;;;5070489;27;43477;-69
2022/05/30 05:21:51;;;;;;;4.33;3.20;;;20.40;63.90;;;;;;5070694;27;44002;-70
2022/05/30 05:24:21;;;;;;;6.83;3.67;;;20.40;64.00;;;;;;5077414;27;44395;-70
2022/05/30 05:27:08;;;;;;;4.60;3.30;;;20.40;64.00;;;;;;5106151;27;43783;-69
2022/05/30 05:29:38;;;;;;;4.90;3.20;;;20.30;64.00;;;;;;5089883;27;44022;-69
2022/05/30 05:32:08;;;;;;;3.93;3.10;;;20.30;64.00;;;;;;5089992;27;43840;-70
2022/05/30 05:34:37;;;;;;;3.10;2.83;;;20.30;64.00;;;;;;5090133;27;44033;-70
2022/05/30 05:37:05;;;;;;;4.37;3.17;;;20.30;64.00;;;;;;5089136;27;45984;-70
2022/05/30 05:39:40;;;;;;;3.50;2.83;;;20.30;64.00;;;;;;5084043;28;43988;-70
2022/05/30 05:42:12;;;;;;;5.73;2.63;;;20.30;64.30;;;;;;5076910;27;43964;-69
2022/05/30 05:44:42;;;;;;;3.77;2.97;;;20.40;65.20;;;;;;5070711;28;44150;-70
2022/05/30 05:47:10;;;;;;;3.27;2.93;;;20.50;65.20;;;;;;5070078;27;44875;-70
2022/05/30 05:49:40;;;;;;;4.77;3.00;;;20.60;64.70;;;;;;5088919;27;43990;-69
2022/05/30 05:52:08;;;;;;;3.20;2.90;;;20.90;64.20;;;;;;5069979;27;43969;-69
2022/05/30 05:54:36;;;;;;;3.63;2.80;;;21.00;63.60;;;;;;5070227;27;43940;-69
2022/05/30 05:57:09;;;;;;;3.10;2.50;;;21.20;63.00;;;;;;5069563;27;44961;-70
2022/05/30 05:59:43;;;;;;;3.17;2.97;;;21.40;62.60;;;;;;5070038;27;44034;-70
2022/05/30 06:02:11;;;;;;;3.57;2.73;;;21.50;62.10;;;;;;5070152;27;43980;-69
2022/05/30 06:04:39;;;;;;;3.63;2.63;;;21.60;61.60;;;;;;5079055;27;43982;-70
2022/05/30 06:07:27;;;;;;;2.60;2.40;;;21.70;61.30;;;;;;5107633;27;44436;-70
2022/05/30 06:10:16;;;;;;;3.83;2.80;;;21.60;61.30;;;;;;5068354;27;43699;-70
2022/05/30 06:12:53;;;;;;;3.00;2.80;;;21.50;61.70;;;;;;5082982;27;43975;-69
2022/05/30 06:15:24;;;;;;;2.80;2.60;;;21.40;62.10;;;;;;5070084;27;43541;-69
2022/05/30 06:18:01;;;;;;;2.63;2.43;;;21.20;62.00;;;;;;5069689;28;44515;-69
2022/05/30 06:20:29;;;;;;;3.03;2.83;;;20.90;62.90;;;;;;5088353;27;43931;-69
2022/05/30 06:22:57;;;;;;;2.37;2.27;;;20.80;62.50;;;;;;5079927;27;43781;-71
2022/05/30 06:26:06;;;;;;;2.80;2.60;;;20.70;63.00;;;;;;5024657;28;44023;-71
2022/05/30 06:28:38;;;;;;;2.47;2.37;;;20.60;63.30;;;;;;5024554;28;46685;-70
2022/05/30 06:31:16;;;;;;;2.87;2.53;;;20.50;63.60;;;;;;5054297;27;45291;-70
2022/05/30 06:33:47;;;;;;;2.30;2.10;;;20.40;63.70;;;;;;5089023;27;44002;-69
2022/05/30 06:36:24;;;;;;;2.37;2.20;;;20.40;64.00;;;;;;5089222;27;44339;-69
2022/05/30 06:38:52;;;;;;;2.50;2.33;;;20.40;64.10;;;;;;5088846;27;46354;-69
2022/05/30 06:41:27;;;;;;;2.70;2.50;;;20.30;64.10;;;;;;5088663;27;46046;-70
2022/05/30 06:44:00;;;;;;;2.10;2.00;;;20.30;64.20;;;;;;5088823;27;44015;-70
2022/05/30 06:47:08;;;;;;;2.40;2.30;;;20.30;64.30;;;;;;5044189;28;44070;-70
2022/05/30 06:49:55;;;;;;;2.20;2.10;;;20.30;64.30;;;;;;5037643;28;44498;-69
2022/05/30 06:52:27;;;;;;;2.50;2.40;;;20.20;64.40;;;;;;5061287;27;45099;-70
2022/05/30 06:54:55;;;;;;;2.27;2.17;;;20.20;64.40;;;;;;5069236;27;44004;-68
2022/05/30 07:00:11;;;;;;;2.20;2.00;;;20.20;64.40;;;;;;5069303;28;46336;-69
2022/05/30 07:03:00;;;;;;;1.67;1.67;;;20.20;65.20;;;;;;5086668;27;44005;-69
2022/05/30 07:05:47;;;;;;;2.10;2.00;;;20.30;65.50;;;;;;5084613;27;44257;-70
2022/05/30 07:08:33;;;;;;;2.00;1.90;;;20.50;65.30;;;;;;5098068;27;43815;-70
2022/05/30 07:11:15;;;;;;;2.13;2.03;;;20.60;64.60;;;;;;5072947;27;45459;-70
2022/05/30 07:13:46;;;;;;;2.17;2.07;;;20.90;64.10;;;;;;5071334;27;44873;-71
2022/05/30 07:16:14;;;;;;;2.33;2.13;;;21.00;63.50;;;;;;5104882;27;44059;-70
2022/05/30 07:18:44;;;;;;;1.93;1.83;;;21.20;63.00;;;;;;5087781;27;43538;-70
2022/05/30 07:21:13;;;;;;;1.83;1.73;;;21.40;62.70;;;;;;5071937;27;44051;-69
2022/05/30 07:23:59;;;;;;;2.23;2.13;;;21.50;62.20;;;;;;5103892;27;44071;-70
2022/05/30 07:26:46;;;;;;;2.00;1.80;;;21.60;61.80;;;;;;5104044;27;44068;-69
2022/05/30 07:29:37;;;;;;;2.13;2.00;;;21.60;61.50;;;;;;5065893;27;43347;-69
2022/05/30 07:32:23;;;;;;;2.00;1.90;;;21.70;61.20;;;;;;5097774;27;44007;-70
2022/05/30 07:35:13;;;;;;;1.57;1.57;;;21.70;61.40;;;;;;5074561;27;44217;-70
2022/05/30 07:38:04;;;;;;;1.70;1.60;;;21.50;61.70;;;;;;5084606;27;44029;-69
2022/05/30 07:41:10;;;;;;;1.87;1.77;;;21.30;61.80;;;;;;5024277;28;44157;-71
2022/05/30 07:44:01;;;;;;;2.10;2.00;;;21.10;62.20;;;;;;5012448;28;44198;-69
2022/05/30 07:46:52;;;;;;;1.93;1.83;;;20.90;62.60;;;;;;5089331;27;43981;-69
2022/05/30 07:49:38;;;;;;;1.73;1.70;;;20.70;63.00;;;;;;5074675;27;43962;-70
2022/05/30 07:52:28;;;;;;;1.87;1.77;;;20.60;63.40;;;;;;5087524;27;44029;-69
2022/05/30 07:55:19;;;;;;;1.70;1.70;;;20.50;63.70;;;;;;5067631;28;44035;-69
2022/05/30 07:57:53;;;;;;;1.50;1.50;;;20.40;63.90;;;;;;5078398;28;44859;-70
2022/05/30 08:00:31;;;;;;;1.70;1.60;;;20.40;64.20;;;;;;5080691;27;43925;-69
2022/05/30 08:03:05;;;;;;;1.60;1.60;;;20.30;64.30;;;;;;5068813;27;43984;-69
2022/05/30 08:05:33;;;;;;;1.90;1.80;;;20.30;64.40;;;;;;5074832;27;45849;-69
2022/05/30 08:08:21;;;;;;;1.80;1.70;;;20.30;64.50;;;;;;5083818;27;43410;-69
2022/05/30 08:10:53;;;;;;;1.90;1.80;;;20.20;64.50;;;;;;5087576;27;43423;-70
2022/05/30 08:13:22;;;;;;;1.90;1.80;;;20.20;64.60;;;;;;5086528;27;43947;-70
2022/05/30 08:15:55;;;;;;;1.63;1.63;;;20.20;64.60;;;;;;5087454;27;43995;-69
2022/05/30 08:18:25;;;;;;;1.60;1.50;;;20.20;64.60;;;;;;5067845;27;43912;-69
2022/05/30 08:20:57;;;;;;;1.53;1.53;;;20.20;64.70;;;;;;5077115;27;43860;-69
2022/05/30 08:23:29;;;;;;;1.60;1.60;;;20.20;64.70;;;;;;5091546;27;43445;-69
2022/05/30 08:26:00;;;;;;;1.40;1.40;;;20.20;64.80;;;;;;5082806;27;43834;-70
2022/05/30 08:28:34;;;;;;;1.90;1.80;;;20.20;64.80;;;;;;5073927;27;44375;-71
2022/05/30 08:31:02;;;;;;;1.43;1.43;;;20.20;64.80;;;;;;5088756;27;44096;-69
2022/05/30 08:33:45;;;;;;;1.70;1.60;;;20.20;64.80;;;;;;5104677;27;43964;-70
2022/05/30 08:36:30;;;;;;;1.43;1.43;;;20.20;65.60;;;;;;5090321;27;45040;-69
2022/05/30 08:41:49;;;;;;;1.30;1.30;;;20.50;65.40;;;;;;5070970;28;43858;-69
2022/05/30 08:44:38;;;;;;;1.57;1.57;;;20.60;64.80;;;;;;5088832;28;44052;-70
2022/05/30 08:47:38;;;;;;;1.40;1.40;;;20.90;64.30;;;;;;5086267;28;43978;-70
2022/05/30 08:50:11;;;;;;;1.30;1.30;;;21.10;63.70;;;;;;5088984;28;43902;-70
2022/05/30 08:52:49;;;;;;;1.30;1.30;;;21.20;63.20;;;;;;5082291;27;43535;-69
2022/05/30 08:55:23;;;;;;;1.37;1.37;;;21.30;62.70;;;;;;5078353;28;43858;-69
2022/05/30 08:58:01;;;;;;;1.23;1.23;;;21.40;62.40;;;;;;5081994;27;43836;-69
2022/05/30 09:00:30;;;;;;;1.30;1.30;;;21.50;62.20;;;;;;5070983;27;43413;-70
2022/05/30 09:03:23;;;;;;;1.40;1.40;;;21.50;62.30;;;;;;5043563;27;44186;-70
2022/05/30 09:05:55;;;;;;;1.30;1.30;;;21.30;62.60;;;;;;5085555;28;43510;-70
2022/05/30 09:08:25;;;;;;;1.40;1.40;;;21.10;62.50;;;;;;5082712;27;45602;-70
2022/05/30 09:11:21;;;;;;;1.20;1.20;;;20.90;62.80;;;;;;5090603;27;43994;-69
2022/05/30 09:13:50;;;;;;;1.43;1.40;;;20.70;63.20;;;;;;5080970;27;43956;-70
2022/05/30 09:16:34;;;;;;;1.33;1.33;;;20.60;63.60;;;;;;5089619;27;44025;-70
2022/05/30 09:19:10;;;;;;;1.03;1.03;;;20.50;64.00;;;;;;5076627;27;43957;-70
2022/05/30 09:21:39;;;;;;;1.37;1.37;;;20.40;64.20;;;;;;5090321;27;44804;-69
2022/05/30 09:24:07;;;;;;;1.17;1.17;;;20.30;64.40;;;;;;5103889;27;44001;-69
2022/05/30 09:26:39;;;;;;;1.30;1.30;;;20.30;64.60;;;;;;5070885;28;43503;-69
2022/05/30 09:29:14;;;;;;;1.20;1.20;;;20.20;64.60;;;;;;5070765;27;45736;-70
2022/05/30 09:32:08;;;;;;;1.10;1.10;;;20.20;64.80;;;;;;5102164;27;43987;-70
2022/05/30 09:34:59;;;;;;;1.07;1.07;;;20.20;64.90;;;;;;5108110;27;43955;-69
2022/05/30 09:38:08;;;;;;;1.43;1.43;;;20.20;64.90;;;;;;5108328;27;44161;-70
2022/05/30 09:40:56;;;;;;;1.30;1.30;;;20.20;65.10;;;;;;5087226;27;43948;-69
2022/05/30 09:43:44;;;;;;;1.17;1.17;;;20.10;65.00;;;;;;5095643;27;44005;-69
2022/05/30 09:46:17;;;;;;;1.40;1.40;;;20.10;65.10;;;;;;5089604;27;43939;-70
2022/05/30 09:49:08;;;;;;;1.20;1.20;;;20.20;65.10;;;;;;5088438;27;43475;-69
2022/05/30 09:51:39;;;;;;;1.30;1.30;;;20.10;65.10;;;;;;5070065;27;44063;-70
2022/05/30 09:54:12;;;;;;;1.20;1.20;;;20.20;65.30;;;;;;5069938;28;44983;-70
2022/05/30 09:56:43;;;;;;;1.30;1.30;;;20.20;66.10;;;;;;5070485;28;44008;-69
2022/05/30 09:59:34;;;;;;;1.20;1.20;;;20.20;66.00;;;;;;5070730;28;43921;-70
2022/05/30 10:02:21;;;;;;;1.20;1.20;;;20.40;65.60;;;;;;5069899;27;45603;-69
2022/05/30 10:04:54;;;;;;;1.23;1.23;;;20.60;65.20;;;;;;5086083;27;44007;-71
2022/05/30 10:07:22;;;;;;;1.20;1.10;;;20.80;64.70;;;;;;5108019;27;44102;-70
2022/05/30 10:10:13;;;;;;;1.10;1.10;;;20.90;64.10;;;;;;5092378;27;44015;-70
2022/05/30 10:12:53;;;;;;;1.27;1.27;;;21.10;63.60;;;;;;5069456;28;43841;-70
2022/05/30 10:15:42;;;;;;;1.30;1.30;;;21.30;63.10;;;;;;5069860;28;44039;-70
2022/05/30 10:18:23;;;;;;;1.10;1.10;;;21.40;62.70;;;;;;5071222;28;44032;-70
2022/05/30 10:21:00;;;;;;;1.20;1.20;;;21.50;62.40;;;;;;5083058;27;44000;-69
2022/05/30 10:30:44;;;;;;;1.10;1.10;;;21.50;62.30;;;;;;5106993;27;43851;-70
2022/05/30 10:33:57;;;;;;;1.00;1.00;;;21.20;62.40;;;;;;5085998;28;43768;-70
2022/05/30 10:36:27;;;;;;;1.00;1.00;;;20.90;62.70;;;;;;5069066;28;45344;-69
2022/05/30 10:39:06;;;;;;;1.10;1.10;;;20.80;63.30;;;;;;5069196;27;45933;-70
2022/05/30 10:41:38;;;;;;;0.87;0.87;;;20.60;63.70;;;;;;5084082;27;43419;-70
2022/05/30 10:44:10;;;;;;;1.00;1.00;;;20.50;64.00;;;;;;5079470;27;43449;-69
2022/05/30 10:46:44;;;;;;;1.10;1.10;;;20.40;64.30;;;;;;5078462;27;46807;-71
2022/05/30 10:49:13;;;;;;;1.20;1.20;;;20.40;64.60;;;;;;5088703;27;44956;-71
2022/05/30 10:51:47;;;;;;;1.10;1.10;;;20.30;64.60;;;;;;5089233;27;43890;-70
2022/05/30 10:54:17;;;;;;;0.97;0.97;;;20.20;64.70;;;;;;5089103;27;43912;-69
2022/05/30 10:57:00;;;;;;;1.10;1.10;;;20.20;64.80;;;;;;5088553;27;44135;-69
2022/05/30 10:59:30;;;;;;;1.10;1.10;;;20.20;64.90;;;;;;5081629;27;45110;-69
2022/05/30 11:02:01;;;;;;;1.03;1.03;;;20.20;65.00;;;;;;5069072;27;43901;-69
2022/05/30 11:04:39;;;;;;;1.07;1.07;;;20.20;65.10;;;;;;5069510;27;44035;-69
2022/05/30 11:07:16;;;;;;;0.87;0.87;;;20.10;65.00;;;;;;5069136;27;46104;-70
2022/05/30 11:09:47;;;;;;;1.00;1.00;;;20.10;65.80;;;;;;5069127;28;43426;-70
2022/05/30 11:12:17;;;;;;;0.80;0.80;;;20.10;65.10;;;;;;5082502;28;43915;-69
2022/05/30 11:14:50;;;;;;;1.00;1.00;;;20.10;65.10;;;;;;5087840;27;43739;-70
2022/05/30 11:17:40;;;;;;;0.90;0.90;;;20.10;65.20;;;;;;5084231;27;43908;-69
2022/05/30 11:20:30;;;;;;;0.80;0.80;;;20.10;65.20;;;;;;5097841;27;43836;-69
2022/05/30 11:22:59;;;;;;;1.07;1.07;;;20.10;65.20;;;;;;5073361;27;43330;-70
2022/05/30 11:25:36;;;;;;;1.00;1.00;;;20.10;65.20;;;;;;5107041;27;44222;-69
2022/05/30 11:28:07;;;;;;;0.90;0.90;;;20.10;65.70;;;;;;5076290;28;45989;-70
2022/05/30 11:30:40;;;;;;;1.00;1.00;;;20.20;66.10;;;;;;5087129;27;44002;-69
2022/05/30 11:33:30;;;;;;;0.90;0.90;;;20.30;65.80;;;;;;5086762;28;43968;-70
2022/05/30 11:36:22;;;;;;;1.00;1.00;;;20.50;65.40;;;;;;5087027;28;43876;-70
2022/05/30 11:39:00;;;;;;;1.07;1.07;;;20.70;64.80;;;;;;5086267;28;43611;-69
2022/05/30 11:41:37;;;;;;;0.90;0.90;;;20.90;64.30;;;;;;5087196;27;43914;-70
2022/05/30 11:44:13;;;;;;;1.00;1.00;;;21.10;63.70;;;;;;5087103;27;43383;-69
2022/05/30 11:46:45;;;;;;;0.80;0.80;;;21.20;63.20;;;;;;5087619;27;43932;-71
2022/05/30 11:49:22;;;;;;;0.90;0.90;;;21.30;62.90;;;;;;5097468;27;43876;-69
2022/05/30 11:51:54;;;;;;;0.90;0.90;;;21.40;62.50;;;;;;5095035;27;44064;-70
2022/05/30 11:54:44;;;;;;;1.00;1.00;;;21.40;62.60;;;;;;5087338;27;43883;-69
2022/05/30 11:57:17;;;;;;;1.00;1.00;;;21.20;62.70;;;;;;5105990;27;43875;-70
2022/05/30 12:00:07;;;;;;;1.00;1.00;;;21.00;62.60;;;;;;5091115;27;45442;-69
2022/05/30 12:03:00;;;;;;;1.00;1.00;;;20.90;63.00;;;;;;5109958;27;43390;-70
2022/05/30 12:05:51;;;;;;;0.90;0.90;;;20.60;63.40;;;;;;5109847;27;44045;-70
2022/05/30 12:08:28;;;;;;;0.93;0.93;;;20.50;63.90;;;;;;5098207;27;43426;-69
2022/05/30 12:11:04;;;;;;;0.97;0.97;;;20.40;64.20;;;;;;5089886;27;44040;-69
2022/05/30 12:13:43;;;;;;;0.80;0.80;;;20.30;64.50;;;;;;5090119;27;43990;-70
2022/05/30 12:16:20;;;;;;;0.60;0.60;;;20.30;64.80;;;;;;5089971;27;44098;-70
2022/05/30 12:25:49;;;;;;;0.90;0.90;;;20.10;65.00;;;;;;5088855;27;43560;-69
2022/05/30 12:28:52;;;;;;;0.80;0.80;;;20.10;65.10;;;;;;5103648;27;43957;-70
2022/05/30 12:31:36;;;;;;;1.50;0.80;;;20.10;65.20;;;;;;5104469;27;44184;-69
2022/05/30 12:34:06;;;;;;;0.87;0.87;;;20.10;65.30;;;;;;5090016;27;43935;-70
2022/05/30 12:36:39;;;;;;;0.70;0.70;;;20.10;65.30;;;;;;5089383;27;44064;-69
2022/05/30 12:39:36;;;;;;;0.90;0.90;;;20.10;65.30;;;;;;5071003;27;43995;-70
2022/05/30 12:42:08;;;;;;;0.90;0.90;;;20.10;65.30;;;;;;5084644;27;43936;-69
2022/05/30 12:44:51;;;;;;;0.80;0.80;;;20.10;65.30;;;;;;5090989;27;46396;-69
2022/05/30 12:47:30;;;;;;;0.90;0.90;;;20.10;65.40;;;;;;5106310;27;43994;-69
2022/05/30 12:50:18;;;;;;;1.00;1.00;;;20.10;65.40;;;;;;5109301;27;43940;-70
2022/05/30 12:52:54;;;;;;;0.80;0.80;;;20.10;66.00;;;;;;5097082;27;43412;-69
2022/05/30 12:55:34;;;;;;;0.80;0.80;;;20.20;66.20;;;;;;5089342;27;45153;-70
2022/05/30 12:58:02;;;;;;;0.80;0.80;;;20.40;65.80;;;;;;5089272;27;44017;-70
2022/05/30 13:00:50;;;;;;;0.80;0.80;;;20.50;65.30;;;;;;5098080;27;44034;-70
2022/05/30 13:03:33;;;;;;;0.80;0.80;;;20.70;64.70;;;;;;5109550;27;43395;-69
2022/05/30 13:06:19;;;;;;;0.80;0.80;;;20.90;64.20;;;;;;5089108;28;43895;-70
2022/05/30 13:09:15;;;;;;;0.90;0.90;;;21.10;63.70;;;;;;5088224;28;43888;-71
2022/05/30 13:12:20;;;;;;;0.90;0.90;;;21.20;63.10;;;;;;5095801;27;43877;-70
2022/05/30 13:15:04;;;;;;;0.90;0.90;;;21.30;62.70;;;;;;5109188;27;43333;-70
2022/05/30 13:17:39;;;;;;;1.00;1.00;;;21.40;62.20;;;;;;5095199;27;44385;-69
2022/05/30 13:20:09;;;;;;;0.80;0.80;;;21.40;62.40;;;;;;5089179;27;43935;-70
2022/05/30 13:22:40;;;;;;;0.90;0.90;;;21.30;62.40;;;;;;5089247;27;43959;-69
2022/05/30 13:25:10;;;;;;;0.80;0.80;;;21.10;62.20;;;;;;5089455;27;43893;-71
2022/05/30 13:27:39;;;;;;;0.93;0.93;;;20.90;62.70;;;;;;5089015;27;43986;-70
2022/05/30 13:30:09;;;;;;;0.73;0.73;;;20.70;63.00;;;;;;5095709;27;44028;-70
2022/05/30 13:32:37;;;;;;;0.90;0.90;;;20.60;63.50;;;;;;5089805;27;43428;-70
2022/05/30 13:35:07;;;;;;;0.90;0.90;;;20.50;63.80;;;;;;5089697;27;44287;-69
2022/05/30 13:37:36;;;;;;;0.83;0.83;;;20.40;64.20;;;;;;5088630;27;43990;-69
2022/05/30 13:40:05;;;;;;;0.77;0.77;;;20.30;64.30;;;;;;5088669;27;43969;-70
2022/05/30 13:42:47;;;;;;;0.80;0.80;;;20.20;64.50;;;;;;5070459;28;43891;-69
2022/05/30 13:45:22;;;;;;;1.00;1.00;;;20.20;64.60;;;;;;5089196;27;43949;-69
2022/05/30 13:48:01;;;;;;;0.80;0.80;;;20.20;64.50;;;;;;5088356;27;44828;-70
2022/05/30 13:50:50;;;;;;;1.27;1.27;;;20.20;64.90;;;;;;5092135;27;43950;-69
2022/05/30 13:53:22;;;;;;;1.17;1.10;;;20.10;64.60;;;;;;5104652;27;44095;-69
2022/05/30 13:55:53;;;;;;;2.10;1.40;;;20.10;64.30;;;;;;5089175;27;43299;-69
2022/05/30 13:58:23;;;;;;;3.93;1.77;;;20.10;64.00;;;;;;5088477;27;44950;-69
2022/05/30 14:00:51;;;;;;;2.50;1.60;;;20.10;63.00;;;;;;5087984;27;44019;-70
2022/05/30 14:03:19;;;;;;;1.80;1.80;;;20.10;61.90;;;;;;5070045;28;43411;-69
2022/05/30 14:05:47;;;;;;;3.67;2.17;;;20.10;61.30;;;;;;5088782;27;43994;-70